createdAt,value
2023-04-16T00:00:44.973Z,99.90
2023-04-16T00:03:12.952Z,99.90
2023-04-16T00:05:40.981Z,99.90
2023-04-16T00:08:08.847Z,99.90
2023-04-16T00:10:37.518Z,99.90
2023-04-16T00:13:05.464Z,99.90
2023-04-16T00:15:33.155Z,99.90
2023-04-16T00:18:01.052Z,99.90
2023-04-16T00:20:28.819Z,99.90
2023-04-16T00:22:56.656Z,99.90
2023-04-16T00:25:24.556Z,99.90
2023-04-16T00:27:52.453Z,99.90
2023-04-16T00:30:20.127Z,99.90
2023-04-16T00:32:48.127Z,99.80
2023-04-16T00:35:16.501Z,99.90
2023-04-16T00:37:47.606Z,99.90
2023-04-16T00:40:15.639Z,99.80
2023-04-16T00:42:43.746Z,99.60
2023-04-16T00:45:12.331Z,99.70
2023-04-16T00:47:40.339Z,99.80
2023-04-16T00:50:08.774Z,99.70
2023-04-16T00:52:36.918Z,99.50
2023-04-16T00:55:08.191Z,99.60
2023-04-16T00:57:36.171Z,99.70
2023-04-16T01:00:04.235Z,99.90
2023-04-16T01:02:32.278Z,99.80
2023-04-16T01:05:01.516Z,99.90
2023-04-16T01:07:29.608Z,99.80
2023-04-16T01:09:57.639Z,99.50
2023-04-16T01:12:25.527Z,99.40
2023-04-16T01:14:53.513Z,99.10
2023-04-16T01:17:21.596Z,99.00
2023-04-16T01:19:49.404Z,98.80
2023-04-16T01:22:17.615Z,98.10
2023-04-16T01:24:46.160Z,98.10
2023-04-16T01:27:14.046Z,98.60
2023-04-16T01:29:42.014Z,99.10
2023-04-16T01:32:10.864Z,99.90
2023-04-16T01:34:41.701Z,99.90
2023-04-16T01:37:11.386Z,99.90
2023-04-16T01:39:39.223Z,99.90
2023-04-16T01:42:09.594Z,99.90
2023-04-16T01:44:37.620Z,99.90
2023-04-16T01:47:05.310Z,99.90
2023-04-16T01:49:34.249Z,99.90
2023-04-16T01:52:02.042Z,99.90
2023-04-16T01:54:32.053Z,99.90
2023-04-16T01:56:59.948Z,99.90
2023-04-16T01:59:27.877Z,99.90
2023-04-16T02:01:57.102Z,99.90
2023-04-16T02:04:25.027Z,99.90
2023-04-16T02:06:52.881Z,99.90
2023-04-16T02:09:20.859Z,99.90
2023-04-16T02:11:48.825Z,99.90
2023-04-16T02:14:16.705Z,99.90
2023-04-16T02:16:44.720Z,99.90
2023-04-16T02:19:20.714Z,99.90
2023-04-16T02:21:49.491Z,99.90
2023-04-16T02:24:17.489Z,99.90
2023-04-16T02:26:45.852Z,99.90
2023-04-16T02:29:17.603Z,99.90
2023-04-16T02:31:51.880Z,99.90
2023-04-16T02:34:20.342Z,99.90
2023-04-16T02:36:49.041Z,99.90
2023-04-16T02:39:17.390Z,99.90
2023-04-16T02:41:45.175Z,99.90
2023-04-16T02:44:13.929Z,99.90
2023-04-16T02:46:41.773Z,99.90
2023-04-16T02:49:09.826Z,99.90
2023-04-16T02:51:37.800Z,99.90
2023-04-16T02:54:06.742Z,99.90
2023-04-16T02:56:34.636Z,99.90
2023-04-16T02:59:02.650Z,99.90
2023-04-16T03:01:30.882Z,99.90
2023-04-16T03:03:58.903Z,99.90
2023-04-16T03:06:27.586Z,99.90
2023-04-16T03:08:55.844Z,99.90
2023-04-16T03:11:23.993Z,99.90
2023-04-16T03:13:51.926Z,99.90
2023-04-16T03:16:20.154Z,99.90
2023-04-16T03:18:48.015Z,99.90
2023-04-16T03:21:18.069Z,99.90
2023-04-16T03:23:46.003Z,99.90
2023-04-16T03:26:13.773Z,99.90
2023-04-16T03:28:41.671Z,99.90
2023-04-16T03:31:09.791Z,99.90
2023-04-16T03:33:38.717Z,99.90
2023-04-16T03:36:06.961Z,99.90
2023-04-16T03:38:34.792Z,99.90
2023-04-16T03:41:02.598Z,99.90
2023-04-16T03:43:34.610Z,99.90
2023-04-16T03:46:02.534Z,99.90
2023-04-16T03:48:30.348Z,99.90
2023-04-16T03:50:59.662Z,99.90
2023-04-16T03:53:27.986Z,99.90
2023-04-16T03:55:56.106Z,99.90
2023-04-16T03:58:23.929Z,99.90
2023-04-16T04:00:56.106Z,99.90
2023-04-16T04:03:26.673Z,99.90
2023-04-16T04:05:56.020Z,99.80
2023-04-16T04:08:28.508Z,99.90
2023-04-16T04:10:56.436Z,99.90
2023-04-16T04:13:26.209Z,99.90
2023-04-16T04:15:54.917Z,99.90
2023-04-16T04:18:24.040Z,99.90
2023-04-16T04:20:52.283Z,99.90
2023-04-16T04:23:24.636Z,99.90
2023-04-16T04:25:52.708Z,99.90
2023-04-16T04:28:20.726Z,99.90
2023-04-16T04:30:48.832Z,99.90
2023-04-16T04:33:16.697Z,99.90
2023-04-16T04:35:44.841Z,99.90
2023-04-16T04:38:15.528Z,99.90
2023-04-16T04:40:44.213Z,99.90
2023-04-16T04:43:12.303Z,99.90
2023-04-16T04:45:40.897Z,99.90
2023-04-16T04:48:08.657Z,99.90
2023-04-16T04:50:37.376Z,99.90
2023-04-16T04:53:10.320Z,99.90
2023-04-16T04:55:41.059Z,99.90
2023-04-16T04:58:10.362Z,99.90
2023-04-16T05:00:39.292Z,99.90
2023-04-16T05:03:11.327Z,99.90
2023-04-16T05:05:41.251Z,99.90
2023-04-16T05:08:09.356Z,99.90
2023-04-16T05:10:37.165Z,99.90
2023-04-16T05:13:05.143Z,99.90
2023-04-16T05:15:32.973Z,99.90
2023-04-16T05:18:01.068Z,99.90
2023-04-16T05:20:28.883Z,99.90
2023-04-16T05:22:56.834Z,99.90
2023-04-16T05:25:24.646Z,99.90
2023-04-16T05:27:52.664Z,99.90
2023-04-16T05:30:20.938Z,99.90
2023-04-16T05:32:49.037Z,99.90
2023-04-16T05:35:17.636Z,99.90
2023-04-16T05:37:45.992Z,99.90
2023-04-16T05:40:15.140Z,99.90
2023-04-16T05:42:43.311Z,99.90
2023-04-16T05:45:11.601Z,99.90
2023-04-16T05:47:42.673Z,99.90
2023-04-16T05:50:11.231Z,99.90
2023-04-16T05:52:39.346Z,99.90
2023-04-16T05:55:07.834Z,99.90
2023-04-16T05:57:35.818Z,99.90
2023-04-16T06:00:04.209Z,99.90
2023-04-16T06:02:39.942Z,99.90
2023-04-16T06:05:08.357Z,99.90
2023-04-16T06:07:36.511Z,99.90
2023-04-16T06:10:04.858Z,99.90
2023-04-16T06:12:32.755Z,99.90
2023-04-16T06:15:02.069Z,99.90
2023-04-16T06:17:29.999Z,99.90
2023-04-16T06:19:57.734Z,99.90
2023-04-16T06:22:25.582Z,99.90
2023-04-16T06:24:54.381Z,99.90
2023-04-16T06:27:22.222Z,99.90
2023-04-16T06:29:50.991Z,99.90
2023-04-16T06:32:19.084Z,99.90
2023-04-16T06:34:47.136Z,99.90
2023-04-16T06:37:15.388Z,99.90
2023-04-16T06:39:43.495Z,99.90
2023-04-16T06:42:11.269Z,99.90
2023-04-16T06:44:40.149Z,99.90
2023-04-16T06:47:08.605Z,99.90
2023-04-16T06:49:36.830Z,99.90
2023-04-16T06:52:05.808Z,99.90
2023-04-16T06:54:35.833Z,99.90
2023-04-16T06:57:03.853Z,99.90
2023-04-16T06:59:32.431Z,99.90
2023-04-16T07:02:00.698Z,99.90
2023-04-16T07:04:28.831Z,99.90
2023-04-16T07:06:57.048Z,99.90
2023-04-16T07:09:25.685Z,99.90
2023-04-16T07:11:54.661Z,99.90
2023-04-16T07:14:22.652Z,99.90
2023-04-16T07:16:51.323Z,99.90
2023-04-16T07:19:19.374Z,99.90
2023-04-16T07:21:47.422Z,99.90
2023-04-16T07:24:15.346Z,99.90
2023-04-16T07:26:43.692Z,99.90
2023-04-16T07:29:11.802Z,99.90
2023-04-16T07:31:40.100Z,99.90
2023-04-16T07:34:08.258Z,99.90
2023-04-16T07:36:36.539Z,99.90
2023-04-16T07:39:06.952Z,99.90
2023-04-16T07:41:34.915Z,99.90
2023-04-16T07:44:02.795Z,99.90
2023-04-16T07:46:43.204Z,99.90
2023-04-16T07:49:14.871Z,99.90
2023-04-16T07:51:42.935Z,99.90
2023-04-16T07:54:11.978Z,99.90
2023-04-16T07:56:40.047Z,99.90
2023-04-16T07:59:22.131Z,99.90
2023-04-16T08:01:54.378Z,99.90
2023-04-16T08:04:26.033Z,99.90
2023-04-16T08:06:54.910Z,99.90
2023-04-16T08:09:24.535Z,99.90
2023-04-16T08:11:52.841Z,99.90
2023-04-16T08:14:21.193Z,99.90
2023-04-16T08:16:49.308Z,99.90
2023-04-16T08:19:17.107Z,99.90
2023-04-16T08:21:45.048Z,99.90
2023-04-16T08:24:12.991Z,99.90
2023-04-16T08:26:41.579Z,99.40
2023-04-16T08:29:09.712Z,99.20
2023-04-16T08:31:38.008Z,99.20
2023-04-16T08:34:06.207Z,97.80
2023-04-16T08:36:34.212Z,96.70
2023-04-16T08:39:01.938Z,96.20
2023-04-16T08:41:33.265Z,97.10
2023-04-16T08:44:17.716Z,97.80
2023-04-16T08:46:47.071Z,95.80
2023-04-16T08:49:18.827Z,95.40
2023-04-16T08:51:52.750Z,94.60
2023-04-16T08:54:46.316Z,94.00
2023-04-16T08:57:27.753Z,94.90
2023-04-16T08:59:56.468Z,93.60
2023-04-16T09:02:26.853Z,92.90
2023-04-16T09:04:57.067Z,92.30
2023-04-16T09:07:26.569Z,92.60
2023-04-16T09:09:55.575Z,93.80
2023-04-16T09:12:26.587Z,93.40
2023-04-16T09:14:54.575Z,93.20
2023-04-16T09:17:22.481Z,93.60
2023-04-16T09:19:51.088Z,93.80
2023-04-16T09:22:19.105Z,94.10
2023-04-16T09:24:47.053Z,94.10
2023-04-16T09:27:15.387Z,94.10
2023-04-16T09:29:44.097Z,94.60
2023-04-16T09:32:12.972Z,95.20
2023-04-16T09:35:01.417Z,96.10
2023-04-16T09:37:30.839Z,95.80
2023-04-16T09:40:00.047Z,94.90
2023-04-16T09:42:31.329Z,94.70
2023-04-16T09:45:01.947Z,95.40
2023-04-16T09:47:42.981Z,95.20
2023-04-16T09:50:18.103Z,94.20
2023-04-16T09:52:51.844Z,94.20
2023-04-16T09:55:30.030Z,92.50
2023-04-16T09:58:02.020Z,92.70
2023-04-16T10:00:31.845Z,93.00
2023-04-16T10:03:07.715Z,93.40
2023-04-16T10:05:35.924Z,93.40
2023-04-16T10:08:12.046Z,93.70
2023-04-16T10:10:40.844Z,94.60
2023-04-16T10:13:09.151Z,94.90
2023-04-16T10:15:37.405Z,95.90
2023-04-16T10:18:06.738Z,95.50
2023-04-16T10:20:35.061Z,95.50
2023-04-16T10:23:03.556Z,94.40
2023-04-16T10:25:32.754Z,93.90
2023-04-16T10:28:01.072Z,94.10
2023-04-16T10:30:29.242Z,93.60
2023-04-16T10:33:00.280Z,93.60
2023-04-16T10:35:28.677Z,92.90
2023-04-16T10:38:28.889Z,93.70
2023-04-16T10:41:04.808Z,93.90
2023-04-16T10:43:39.320Z,94.40
2023-04-16T10:46:25.211Z,95.00
2023-04-16T10:49:01.041Z,95.50
2023-04-16T10:51:34.505Z,96.80
2023-04-16T10:54:21.669Z,97.30
2023-04-16T10:56:51.512Z,97.80
2023-04-16T10:59:21.816Z,98.50
2023-04-16T11:01:53.093Z,99.00
2023-04-16T11:04:21.282Z,98.70
2023-04-16T11:07:04.198Z,98.70
2023-04-16T11:09:57.102Z,98.30
2023-04-16T11:12:39.911Z,98.00
2023-04-16T11:15:09.720Z,97.80
2023-04-16T11:17:40.717Z,97.20
2023-04-16T11:20:21.243Z,96.70
2023-04-16T11:22:51.083Z,96.00
2023-04-16T11:25:23.722Z,95.50
2023-04-16T11:27:53.275Z,95.30
2023-04-16T11:30:34.650Z,93.80
2023-04-16T11:33:12.759Z,93.40
2023-04-16T11:35:41.761Z,91.40
2023-04-16T11:38:09.727Z,90.20
2023-04-16T11:40:37.913Z,90.10
2023-04-16T11:43:17.016Z,87.60
2023-04-16T11:46:12.874Z,86.00
2023-04-16T11:48:52.691Z,83.50
2023-04-16T11:51:22.259Z,81.30
2023-04-16T11:53:53.793Z,81.90
2023-04-16T11:56:30.046Z,84.40
2023-04-16T11:59:14.513Z,84.30
2023-04-16T12:01:46.961Z,86.60
2023-04-16T12:04:16.892Z,88.70
2023-04-16T12:07:07.787Z,88.70
2023-04-16T12:09:39.974Z,87.10
2023-04-16T12:12:27.983Z,86.70
2023-04-16T12:14:57.520Z,88.00
2023-04-16T12:17:25.929Z,90.20
2023-04-16T12:19:57.790Z,89.30
2023-04-16T12:22:29.428Z,81.90
2023-04-16T12:25:00.061Z,74.10
2023-04-16T12:27:53.847Z,72.20
2023-04-16T12:30:24.350Z,71.70
2023-04-16T12:33:13.472Z,73.30
2023-04-16T12:35:44.514Z,76.10
2023-04-16T12:38:12.782Z,78.90
2023-04-16T12:40:40.608Z,82.60
2023-04-16T12:43:10.044Z,82.50
2023-04-16T12:45:39.140Z,82.20
2023-04-16T12:48:07.514Z,81.90
2023-04-16T12:50:36.193Z,80.90
2023-04-16T12:53:04.581Z,80.30
2023-04-16T12:55:33.512Z,77.40
2023-04-16T12:58:02.311Z,73.10
2023-04-16T13:00:30.260Z,70.00
2023-04-16T13:02:58.513Z,70.40
2023-04-16T13:05:27.001Z,69.80
2023-04-16T13:07:55.076Z,67.40
2023-04-16T13:10:23.828Z,65.30
2023-04-16T13:12:51.890Z,65.50
2023-04-16T13:15:20.128Z,65.40
2023-04-16T13:17:48.214Z,63.80
2023-04-16T13:20:16.154Z,63.20
2023-04-16T13:22:44.274Z,62.50
2023-04-16T13:25:12.492Z,64.20
2023-04-16T13:27:40.693Z,65.80
2023-04-16T13:30:09.154Z,68.10
2023-04-16T13:32:37.163Z,71.00
2023-04-16T13:35:05.384Z,75.20
2023-04-16T13:37:33.207Z,79.20
2023-04-16T13:40:01.211Z,84.20
2023-04-16T13:42:29.170Z,90.80
2023-04-16T13:44:58.443Z,92.90
2023-04-16T13:47:26.653Z,94.20
2023-04-16T13:49:55.249Z,95.10
2023-04-16T13:52:23.396Z,95.40
2023-04-16T13:54:51.618Z,95.10
2023-04-16T13:57:23.176Z,95.00
2023-04-16T13:59:51.418Z,94.90
2023-04-16T14:02:19.416Z,94.00
2023-04-16T14:04:47.973Z,92.70
2023-04-16T14:07:16.858Z,91.00
2023-04-16T14:09:45.527Z,90.70
2023-04-16T14:12:13.824Z,91.30
2023-04-16T14:14:42.277Z,90.50
2023-04-16T14:17:10.199Z,90.00
2023-04-16T14:19:38.655Z,86.70
2023-04-16T14:22:08.788Z,87.60
2023-04-16T14:24:37.524Z,87.40
2023-04-16T14:27:05.400Z,88.20
2023-04-16T14:29:33.363Z,89.20
2023-04-16T14:32:01.765Z,89.20
2023-04-16T14:34:29.993Z,88.90
2023-04-16T14:37:01.077Z,89.50
2023-04-16T14:39:29.117Z,90.40
2023-04-16T14:41:57.188Z,90.60
2023-04-16T14:44:25.288Z,91.30
2023-04-16T14:46:53.054Z,93.30
2023-04-16T14:49:21.382Z,95.10
2023-04-16T14:51:49.335Z,95.40
2023-04-16T14:54:19.756Z,95.30
2023-04-16T14:56:48.026Z,94.60
2023-04-16T14:59:15.874Z,94.10
2023-04-16T15:01:44.063Z,92.40
2023-04-16T15:04:12.377Z,92.30
2023-04-16T15:06:40.435Z,91.50
2023-04-16T15:09:08.687Z,90.20
2023-04-16T15:11:36.847Z,89.20
2023-04-16T15:14:04.747Z,90.20
2023-04-16T15:16:32.926Z,89.50
2023-04-16T15:19:01.137Z,85.80
2023-04-16T15:21:29.965Z,85.10
2023-04-16T15:23:57.866Z,84.80
2023-04-16T15:26:27.110Z,86.30
2023-04-16T15:28:55.004Z,87.10
2023-04-16T15:31:23.463Z,88.30
2023-04-16T15:33:51.315Z,88.20
2023-04-16T15:36:19.314Z,89.10
2023-04-16T15:38:47.501Z,88.50
2023-04-16T15:41:15.680Z,90.30
2023-04-16T15:43:43.602Z,90.70
2023-04-16T15:46:11.771Z,91.00
2023-04-16T15:48:39.528Z,91.50
2023-04-16T15:51:07.638Z,91.40
2023-04-16T15:53:36.322Z,91.90
2023-04-16T15:56:04.650Z,91.80
2023-04-16T15:58:32.491Z,88.90
2023-04-16T16:01:00.658Z,84.80
2023-04-16T16:03:28.680Z,83.00
2023-04-16T16:05:59.244Z,81.30
2023-04-16T16:08:27.626Z,81.10
2023-04-16T16:10:55.552Z,80.50
2023-04-16T16:13:37.711Z,78.90
2023-04-16T16:16:06.378Z,79.00
2023-04-16T16:18:34.328Z,80.10
2023-04-16T16:21:02.539Z,80.30
2023-04-16T16:23:30.518Z,81.50
2023-04-16T16:25:58.525Z,79.80
2023-04-16T16:28:26.608Z,81.30
2023-04-16T16:30:55.865Z,82.30
2023-04-16T16:33:23.900Z,82.60
2023-04-16T16:35:51.672Z,83.10
2023-04-16T16:38:20.541Z,83.50
2023-04-16T16:40:48.699Z,83.50
2023-04-16T16:43:17.297Z,84.50
2023-04-16T16:45:46.948Z,84.60
2023-04-16T16:48:15.115Z,85.60
2023-04-16T16:50:42.919Z,84.20
2023-04-16T16:53:10.964Z,84.10
2023-04-16T16:55:39.305Z,85.60
2023-04-16T16:58:07.459Z,85.00
2023-04-16T17:00:35.802Z,85.70
2023-04-16T17:03:04.174Z,85.90
2023-04-16T17:05:32.058Z,86.10
2023-04-16T17:08:00.163Z,85.60
2023-04-16T17:10:28.286Z,86.20
2023-04-16T17:12:56.493Z,86.00
2023-04-16T17:15:24.474Z,85.90
2023-04-16T17:17:52.573Z,86.60
2023-04-16T17:20:20.380Z,86.70
2023-04-16T17:22:48.412Z,87.80
2023-04-16T17:25:16.502Z,87.30
2023-04-16T17:27:44.521Z,87.40
2023-04-16T17:30:12.654Z,87.90
2023-04-16T17:32:41.202Z,88.50
2023-04-16T17:35:10.541Z,89.70
2023-04-16T17:37:38.596Z,90.00
2023-04-16T17:40:08.413Z,90.10
2023-04-16T17:42:37.226Z,90.30
2023-04-16T17:45:05.584Z,90.20
2023-04-16T17:47:39.257Z,90.50
2023-04-16T17:50:08.352Z,90.70
2023-04-16T17:52:37.790Z,90.60
2023-04-16T17:55:08.109Z,90.60
2023-04-16T17:57:36.779Z,90.70
2023-04-16T18:00:23.582Z,90.80
2023-04-16T18:02:52.863Z,90.90
2023-04-16T18:05:21.187Z,91.00
2023-04-16T18:07:49.112Z,91.00
2023-04-16T18:10:17.077Z,91.30
2023-04-16T18:12:45.084Z,91.70
2023-04-16T18:15:13.302Z,92.40
2023-04-16T18:17:41.264Z,92.40
2023-04-16T18:20:12.296Z,94.00
2023-04-16T18:22:40.230Z,95.60
2023-04-16T18:25:08.342Z,97.50
2023-04-16T18:27:36.351Z,98.40
2023-04-16T18:30:04.807Z,99.10
2023-04-16T18:32:33.592Z,99.70
2023-04-16T18:35:01.675Z,99.90
2023-04-16T18:37:29.796Z,99.90
2023-04-16T18:39:58.150Z,99.90
2023-04-16T18:42:30.134Z,99.90
2023-04-16T18:44:59.401Z,99.90
2023-04-16T18:47:27.607Z,99.90
2023-04-16T18:49:55.767Z,99.90
2023-04-16T18:52:23.739Z,99.90
2023-04-16T18:54:51.910Z,99.90
2023-04-16T18:57:20.132Z,99.90
2023-04-16T18:59:48.090Z,99.90
2023-04-16T19:02:19.047Z,99.90
2023-04-16T19:04:47.167Z,99.90
2023-04-16T19:07:14.995Z,99.90
2023-04-16T19:09:43.448Z,99.90
2023-04-16T19:12:11.351Z,99.90
2023-04-16T19:14:39.436Z,99.90
2023-04-16T19:17:07.418Z,99.90
2023-04-16T19:19:36.336Z,99.90
2023-04-16T19:22:04.327Z,99.90
2023-04-16T19:24:34.151Z,99.90
2023-04-16T19:27:03.101Z,99.90
2023-04-16T19:29:35.186Z,99.90
2023-04-16T19:32:03.444Z,99.90
2023-04-16T19:34:31.421Z,99.90
2023-04-16T19:36:59.273Z,99.90
2023-04-16T19:39:30.723Z,99.90
2023-04-16T19:41:58.761Z,99.90
2023-04-16T19:44:27.966Z,99.90
2023-04-16T19:46:56.713Z,99.90
2023-04-16T19:49:34.526Z,99.90
2023-04-16T19:52:02.971Z,99.90
2023-04-16T19:54:33.971Z,99.90
2023-04-16T19:57:02.207Z,99.90
2023-04-16T19:59:30.293Z,99.90
2023-04-16T20:01:58.454Z,99.90
2023-04-16T20:04:26.603Z,99.90
2023-04-16T20:06:54.801Z,99.90
2023-04-16T20:09:22.633Z,99.90
2023-04-16T20:11:50.742Z,99.90
2023-04-16T20:14:18.569Z,99.90
2023-04-16T20:16:46.433Z,98.80
2023-04-16T20:19:19.503Z,99.30
2023-04-16T20:21:47.587Z,99.30
2023-04-16T20:24:15.748Z,99.20
2023-04-16T20:26:44.253Z,99.30
2023-04-16T20:29:12.497Z,99.20
2023-04-16T20:31:43.037Z,99.20
2023-04-16T20:34:10.955Z,99.10
2023-04-16T20:36:39.161Z,99.00
2023-04-16T20:39:08.310Z,99.00
2023-04-16T20:41:40.553Z,99.20
2023-04-16T20:44:10.313Z,99.60
2023-04-16T20:46:42.479Z,99.90
2023-04-16T20:49:10.579Z,99.90
2023-04-16T20:51:38.665Z,99.20
2023-04-16T20:54:08.965Z,97.80
2023-04-16T20:56:37.498Z,97.40
2023-04-16T20:59:05.382Z,97.20
2023-04-16T21:01:34.041Z,97.50
2023-04-16T21:04:02.594Z,97.80
2023-04-16T21:06:33.335Z,98.20
2023-04-16T21:09:01.462Z,98.40
2023-04-16T21:11:33.683Z,98.40
2023-04-16T21:14:02.783Z,98.60
2023-04-16T21:16:31.055Z,98.50
2023-04-16T21:18:59.346Z,98.80
2023-04-16T21:21:28.201Z,98.80
2023-04-16T21:23:56.403Z,98.80
2023-04-16T21:26:25.972Z,98.70
2023-04-16T21:28:55.122Z,98.90
2023-04-16T21:31:23.179Z,98.70
2023-04-16T21:33:51.180Z,99.10
2023-04-16T21:36:19.149Z,98.50
2023-04-16T21:38:48.107Z,98.90
2023-04-16T21:41:16.878Z,98.50
2023-04-16T21:43:44.901Z,98.50
2023-04-16T21:46:12.984Z,98.30
2023-04-16T21:49:02.601Z,98.40
2023-04-16T21:51:30.740Z,98.60
2023-04-16T21:53:59.339Z,98.10
2023-04-16T21:56:27.739Z,98.10
2023-04-16T21:58:55.768Z,98.20
2023-04-16T22:01:23.907Z,98.20
2023-04-16T22:03:52.453Z,98.10
2023-04-16T22:06:20.999Z,98.00
2023-04-16T22:08:50.331Z,97.90
2023-04-16T22:11:18.723Z,98.00
2023-04-16T22:13:48.016Z,97.20
2023-04-16T22:16:16.098Z,97.20
2023-04-16T22:18:44.087Z,97.30
2023-04-16T22:21:12.192Z,97.50
2023-04-16T22:23:42.388Z,97.50
2023-04-16T22:26:10.580Z,97.60
2023-04-16T22:28:38.471Z,97.70
2023-04-16T22:31:07.266Z,97.80
2023-04-16T22:33:35.415Z,97.70
2023-04-16T22:36:03.711Z,97.70
2023-04-16T22:38:31.443Z,97.80
2023-04-16T22:40:59.541Z,98.10
2023-04-16T22:43:27.313Z,97.80
2023-04-16T22:46:07.003Z,97.60
2023-04-16T22:48:36.814Z,97.80
2023-04-16T22:51:05.990Z,98.00
2023-04-16T22:53:34.250Z,98.20
2023-04-16T22:56:02.140Z,98.40
2023-04-16T22:58:29.990Z,98.40
2023-04-16T23:00:59.796Z,98.60
2023-04-16T23:03:27.958Z,98.60
2023-04-16T23:05:56.068Z,98.90
2023-04-16T23:08:24.230Z,99.00
2023-04-16T23:10:51.968Z,99.10
2023-04-16T23:13:20.616Z,99.20
2023-04-16T23:15:48.544Z,99.40
2023-04-16T23:18:16.608Z,99.60
2023-04-16T23:20:44.640Z,99.60
2023-04-16T23:23:12.733Z,99.60
2023-04-16T23:25:42.114Z,99.60
2023-04-16T23:28:10.201Z,99.70
2023-04-16T23:30:38.278Z,99.80
2023-04-16T23:33:06.418Z,99.90
2023-04-16T23:35:34.340Z,99.90
2023-04-16T23:38:02.562Z,99.90
2023-04-16T23:40:31.050Z,99.90
2023-04-16T23:42:59.252Z,99.90
2023-04-16T23:45:27.180Z,99.90
2023-04-16T23:47:55.429Z,99.90
2023-04-16T23:50:23.316Z,99.90
2023-04-16T23:52:51.493Z,99.90
2023-04-16T23:55:19.496Z,99.90
2023-04-16T23:57:47.389Z,99.90
